PHBLT ENTO-ENGM
Flight info
| Callsign | PHBLT |
|---|---|
| Flight time | 0h 56m |
| Altitude | 2500 |
| Route | VFR/36 |
| Aircraft | PA24/L-V/N |
Departure
| Time | 2026-05-04 19:15 |
|---|---|
| Airport | Sandefjord Airport, Torp (ENTO) |
Arrival
| Time | 2026-05-04 20:11 |
|---|---|
| Airport | Oslo-Gardermoen International Airport (ENGM) |
| Time | Latitude | Longitude | Altitude | Speed | Heading |
|---|---|---|---|---|---|
| 2026-05-04 19:03 | 59.18595 | 10.25622 | 273 ft | 0 kts | 268° |
| 2026-05-04 19:12 | 59.18569 | 10.25568 | 273 ft | 13 kts | 177° |
| 2026-05-04 19:13 | 59.18520 | 10.25681 | 273 ft | 18 kts | 188° |
| 2026-05-04 19:13 | 59.18497 | 10.25680 | 273 ft | 3 kts | 146° |
| 2026-05-04 19:13 | 59.18543 | 10.25860 | 273 ft | 19 kts | 40° |
| 2026-05-04 19:13 | 59.18575 | 10.25866 | 273 ft | 0 kts | 0° |
| 2026-05-04 19:14 | 59.18713 | 10.25862 | 274 ft | 52 kts | 356° |
| 2026-05-04 19:14 | 59.19191 | 10.25888 | 339 ft | 77 kts | 356° |
| 2026-05-04 19:14 | 59.19720 | 10.26415 | 533 ft | 97 kts | 37° |
| 2026-05-04 19:14 | 59.20165 | 10.27341 | 848 ft | 101 kts | 40° |
| 2026-05-04 19:15 | 59.20707 | 10.28346 | 1057 ft | 114 kts | 35° |
| 2026-05-04 19:15 | 59.21284 | 10.29397 | 1338 ft | 119 kts | 36° |
| 2026-05-04 19:15 | 59.21920 | 10.30517 | 1582 ft | 129 kts | 33° |
| 2026-05-04 19:15 | 59.22628 | 10.31691 | 1848 ft | 131 kts | 32° |
| 2026-05-04 19:16 | 59.23364 | 10.32911 | 1946 ft | 147 kts | 33° |
| 2026-05-04 19:16 | 59.24151 | 10.34213 | 2097 ft | 151 kts | 32° |
| 2026-05-04 19:16 | 59.24979 | 10.35671 | 2015 ft | 167 kts | 33° |
| 2026-05-04 19:16 | 59.25878 | 10.37156 | 2082 ft | 166 kts | 32° |
| 2026-05-04 19:17 | 59.26455 | 10.38161 | 2070 ft | 171 kts | 33° |
| 2026-05-04 19:17 | 59.27372 | 10.39717 | 2116 ft | 173 kts | 33° |
| 2026-05-04 19:17 | 59.28298 | 10.41129 | 2291 ft | 168 kts | 19° |
| 2026-05-04 19:17 | 59.29680 | 10.42468 | 2305 ft | 164 kts | 19° |
| 2026-05-04 19:18 | 59.30680 | 10.43513 | 2237 ft | 164 kts | 18° |
| 2026-05-04 19:18 | 59.31702 | 10.44583 | 2211 ft | 167 kts | 18° |
| 2026-05-04 19:18 | 59.32390 | 10.45306 | 2283 ft | 165 kts | 19° |
| 2026-05-04 19:18 | 59.33394 | 10.46424 | 2331 ft | 168 kts | 20° |
| 2026-05-04 19:19 | 59.34422 | 10.47551 | 2364 ft | 170 kts | 19° |
| 2026-05-04 19:19 | 59.35426 | 10.48679 | 2432 ft | 167 kts | 19° |
| 2026-05-04 19:19 | 59.36436 | 10.49794 | 2463 ft | 166 kts | 18° |
| 2026-05-04 19:19 | 59.37446 | 10.50887 | 2507 ft | 165 kts | 18° |
| 2026-05-04 19:20 | 59.38444 | 10.51976 | 2549 ft | 164 kts | 18° |
| 2026-05-04 19:20 | 59.39442 | 10.53067 | 2581 ft | 164 kts | 19° |
| 2026-05-04 19:20 | 59.40443 | 10.54159 | 2632 ft | 165 kts | 19° |
| 2026-05-04 19:20 | 59.41448 | 10.55255 | 2672 ft | 165 kts | 18° |
| 2026-05-04 19:21 | 59.42445 | 10.56366 | 2728 ft | 165 kts | 18° |
| 2026-05-04 19:21 | 59.43442 | 10.57470 | 2759 ft | 164 kts | 18° |
| 2026-05-04 19:21 | 59.44435 | 10.58589 | 2800 ft | 164 kts | 19° |
| 2026-05-04 19:21 | 59.45422 | 10.59713 | 2834 ft | 163 kts | 19° |
| 2026-05-04 19:22 | 59.46406 | 10.60803 | 2885 ft | 161 kts | 19° |
| 2026-05-04 19:22 | 59.47387 | 10.61884 | 2924 ft | 162 kts | 19° |
| 2026-05-04 19:22 | 59.48374 | 10.62978 | 2956 ft | 164 kts | 19° |
| 2026-05-04 19:22 | 59.49381 | 10.64035 | 2993 ft | 163 kts | 15° |
| 2026-05-04 19:23 | 59.50397 | 10.64982 | 3044 ft | 161 kts | 14° |
| 2026-05-04 19:23 | 59.51409 | 10.65908 | 3067 ft | 160 kts | 14° |
| 2026-05-04 19:23 | 59.52435 | 10.66841 | 2967 ft | 166 kts | 14° |
| 2026-05-04 19:23 | 59.53476 | 10.67803 | 2954 ft | 163 kts | 14° |
| 2026-05-04 19:24 | 59.54497 | 10.68735 | 2978 ft | 163 kts | 15° |
| 2026-05-04 19:24 | 59.55532 | 10.69729 | 2918 ft | 168 kts | 15° |
| 2026-05-04 19:24 | 59.56583 | 10.70681 | 2948 ft | 164 kts | 14° |
| 2026-05-04 19:24 | 59.57621 | 10.71626 | 2935 ft | 165 kts | 15° |
| 2026-05-04 19:25 | 59.58666 | 10.72558 | 2885 ft | 165 kts | 14° |
| 2026-05-04 19:25 | 59.59709 | 10.73497 | 2890 ft | 165 kts | 14° |
| 2026-05-04 19:25 | 59.60749 | 10.74475 | 2883 ft | 166 kts | 15° |
| 2026-05-04 19:25 | 59.61798 | 10.75435 | 2869 ft | 167 kts | 15° |
| 2026-05-04 19:26 | 59.62849 | 10.76399 | 2863 ft | 166 kts | 14° |
| 2026-05-04 19:26 | 59.63884 | 10.77363 | 2830 ft | 167 kts | 15° |
| 2026-05-04 19:26 | 59.64934 | 10.78328 | 2845 ft | 166 kts | 14° |
| 2026-05-04 19:26 | 59.65983 | 10.79278 | 2846 ft | 166 kts | 14° |
| 2026-05-04 19:27 | 59.67042 | 10.80276 | 2846 ft | 167 kts | 15° |
| 2026-05-04 19:27 | 59.68082 | 10.81256 | 2842 ft | 169 kts | 14° |
| 2026-05-04 19:27 | 59.69142 | 10.82274 | 2814 ft | 169 kts | 15° |
| 2026-05-04 19:27 | 59.70199 | 10.83287 | 2804 ft | 168 kts | 14° |
| 2026-05-04 19:28 | 59.71256 | 10.84268 | 2771 ft | 167 kts | 14° |
| 2026-05-04 19:28 | 59.72301 | 10.85223 | 2748 ft | 166 kts | 15° |
| 2026-05-04 19:28 | 59.73355 | 10.86194 | 2767 ft | 167 kts | 14° |
| 2026-05-04 19:28 | 59.74412 | 10.87136 | 2764 ft | 167 kts | 14° |
| 2026-05-04 19:29 | 59.75471 | 10.88083 | 2756 ft | 168 kts | 15° |
| 2026-05-04 19:29 | 59.76528 | 10.89097 | 2766 ft | 169 kts | 15° |
| 2026-05-04 19:29 | 59.77593 | 10.90067 | 2758 ft | 168 kts | 12° |
| 2026-05-04 19:29 | 59.78658 | 10.91036 | 2721 ft | 168 kts | 12° |
| 2026-05-04 19:30 | 59.79714 | 10.92015 | 2724 ft | 168 kts | 15° |
| 2026-05-04 19:30 | 59.80772 | 10.92983 | 2716 ft | 167 kts | 20° |
| 2026-05-04 19:30 | 59.81828 | 10.94004 | 2765 ft | 168 kts | 14° |
| 2026-05-04 19:30 | 59.82898 | 10.94980 | 2735 ft | 169 kts | 18° |
| 2026-05-04 19:31 | 59.83970 | 10.95935 | 2761 ft | 168 kts | 12° |
| 2026-05-04 19:31 | 59.85044 | 10.96889 | 2748 ft | 168 kts | 14° |
| 2026-05-04 19:31 | 59.86107 | 10.97794 | 2726 ft | 165 kts | 17° |
| 2026-05-04 19:31 | 59.87160 | 10.98665 | 2726 ft | 163 kts | 12° |
| 2026-05-04 19:32 | 59.88232 | 10.99485 | 2701 ft | 165 kts | 9° |
| 2026-05-04 19:32 | 59.89306 | 11.00258 | 2716 ft | 164 kts | 11° |
| 2026-05-04 19:32 | 59.90394 | 11.01153 | 2510 ft | 177 kts | 11° |
| 2026-05-04 19:32 | 59.91563 | 11.01859 | 2447 ft | 173 kts | 5° |
| 2026-05-04 19:33 | 59.92673 | 11.02674 | 2417 ft | 170 kts | 13° |
| 2026-05-04 19:33 | 59.93769 | 11.03642 | 2305 ft | 174 kts | 15° |
| 2026-05-04 19:33 | 59.94888 | 11.04514 | 2209 ft | 170 kts | 13° |
| 2026-05-04 19:33 | 59.95970 | 11.05476 | 2146 ft | 170 kts | 13° |
| 2026-05-04 19:34 | 59.97040 | 11.06333 | 2092 ft | 161 kts | 12° |
| 2026-05-04 19:34 | 59.98070 | 11.07237 | 1841 ft | 165 kts | 16° |
| 2026-05-04 19:34 | 59.99056 | 11.08349 | 1781 ft | 158 kts | 25° |
| 2026-05-04 19:34 | 60.00030 | 11.09302 | 1688 ft | 152 kts | 13° |
| 2026-05-04 19:35 | 60.00950 | 11.10146 | 1689 ft | 143 kts | 17° |
| 2026-05-04 19:35 | 60.01823 | 11.10992 | 1714 ft | 135 kts | 18° |
| 2026-05-04 19:35 | 60.02769 | 11.11631 | 1426 ft | 152 kts | 1° |
| 2026-05-04 19:35 | 60.03790 | 11.11549 | 1465 ft | 145 kts | 341° |
| 2026-05-04 19:36 | 60.04688 | 11.10734 | 1536 ft | 132 kts | 319° |
| 2026-05-04 19:36 | 60.05373 | 11.09661 | 1607 ft | 127 kts | 313° |
| 2026-05-04 19:36 | 60.06041 | 11.08474 | 1587 ft | 129 kts | 313° |
| 2026-05-04 19:36 | 60.06743 | 11.07305 | 1553 ft | 133 kts | 315° |
| 2026-05-04 19:37 | 60.07499 | 11.06243 | 1596 ft | 132 kts | 321° |
| 2026-05-04 19:37 | 60.08293 | 11.05310 | 1579 ft | 134 kts | 326° |
| 2026-05-04 19:37 | 60.09153 | 11.04582 | 1663 ft | 130 kts | 336° |
| 2026-05-04 19:37 | 60.10007 | 11.03959 | 1711 ft | 131 kts | 330° |
| 2026-05-04 19:38 | 60.10822 | 11.03230 | 1832 ft | 123 kts | 325° |
| 2026-05-04 19:38 | 60.11588 | 11.02592 | 2005 ft | 115 kts | 334° |
| 2026-05-04 19:38 | 60.12396 | 11.02265 | 2036 ft | 124 kts | 342° |
| 2026-05-04 19:38 | 60.13261 | 11.02176 | 1911 ft | 127 kts | 350° |
| 2026-05-04 19:39 | 60.14146 | 11.02261 | 1761 ft | 127 kts | 351° |
| 2026-05-04 19:39 | 60.15004 | 11.02485 | 1665 ft | 123 kts | 1° |
| 2026-05-04 19:39 | 60.15858 | 11.02864 | 1557 ft | 126 kts | 359° |
| 2026-05-04 19:39 | 60.16741 | 11.03082 | 1409 ft | 129 kts | 359° |
| 2026-05-04 19:40 | 60.17616 | 11.03314 | 1330 ft | 124 kts | 358° |
| 2026-05-04 19:40 | 60.18466 | 11.03501 | 1349 ft | 120 kts | 356° |
| 2026-05-04 19:40 | 60.19255 | 11.03591 | 1357 ft | 108 kts | 355° |
| 2026-05-04 19:40 | 60.19996 | 11.03779 | 1297 ft | 104 kts | 4° |
| 2026-05-04 19:41 | 60.20684 | 11.04069 | 1280 ft | 102 kts | 6° |
| 2026-05-04 19:41 | 60.21394 | 11.04490 | 1243 ft | 104 kts | 14° |
| 2026-05-04 19:41 | 60.22037 | 11.05072 | 1300 ft | 103 kts | 22° |
| 2026-05-04 19:41 | 60.22679 | 11.05768 | 1352 ft | 106 kts | 15° |
| 2026-05-04 19:42 | 60.23354 | 11.06252 | 1463 ft | 98 kts | 8° |
| 2026-05-04 19:42 | 60.23747 | 11.07341 | 1369 ft | 111 kts | 81° |
| 2026-05-04 19:42 | 60.23493 | 11.08697 | 1306 ft | 101 kts | 118° |
| 2026-05-04 19:42 | 60.23079 | 11.09625 | 1235 ft | 84 kts | 166° |
| 2026-05-04 19:43 | 60.22555 | 11.09710 | 1081 ft | 74 kts | 192° |
| 2026-05-04 19:43 | 60.22067 | 11.09467 | 878 ft | 74 kts | 207° |
| 2026-05-04 19:43 | 60.21594 | 11.09174 | 753 ft | 71 kts | 204° |
| 2026-05-04 19:43 | 60.21152 | 11.08906 | 677 ft | 58 kts | 206° |
| 2026-05-04 19:44 | 60.20821 | 11.08714 | 674 ft | 54 kts | 195° |
| 2026-05-04 19:44 | 60.20340 | 11.08506 | 788 ft | 83 kts | 198° |
| 2026-05-04 19:44 | 60.19728 | 11.08075 | 928 ft | 103 kts | 202° |
| 2026-05-04 19:44 | 60.19337 | 11.07010 | 1137 ft | 104 kts | 276° |
| 2026-05-04 19:45 | 60.19519 | 11.05630 | 1349 ft | 103 kts | 285° |
| 2026-05-04 19:45 | 60.19883 | 11.04386 | 1428 ft | 112 kts | 328° |
| 2026-05-04 19:45 | 60.20699 | 11.04468 | 1501 ft | 133 kts | 13° |
| 2026-05-04 19:45 | 60.21611 | 11.05132 | 1493 ft | 144 kts | 15° |
| 2026-05-04 19:46 | 60.22509 | 11.05828 | 1570 ft | 137 kts | 11° |
| 2026-05-04 19:46 | 60.23416 | 11.06391 | 1582 ft | 134 kts | 10° |
| 2026-05-04 19:46 | 60.24155 | 11.07256 | 1633 ft | 124 kts | 51° |
| 2026-05-04 19:46 | 60.24199 | 11.08994 | 1498 ft | 132 kts | 104° |
| 2026-05-04 19:47 | 60.23714 | 11.10253 | 1459 ft | 105 kts | 174° |
| 2026-05-04 19:47 | 60.23069 | 11.10043 | 1091 ft | 99 kts | 205° |
| 2026-05-04 19:47 | 60.22404 | 11.09654 | 870 ft | 97 kts | 203° |
| 2026-05-04 19:47 | 60.21791 | 11.09280 | 745 ft | 83 kts | 201° |
| 2026-05-04 19:48 | 60.21287 | 11.08984 | 683 ft | 67 kts | 202° |
| 2026-05-04 19:48 | 60.20884 | 11.08748 | 675 ft | 56 kts | 198° |
| 2026-05-04 19:48 | 60.20400 | 11.08485 | 720 ft | 82 kts | 198° |
| 2026-05-04 19:48 | 60.19831 | 11.08161 | 850 ft | 87 kts | 202° |
| 2026-05-04 19:49 | 60.19187 | 11.07795 | 970 ft | 101 kts | 197° |
| 2026-05-04 19:49 | 60.18508 | 11.07475 | 1205 ft | 103 kts | 199° |
| 2026-05-04 19:49 | 60.18025 | 11.06597 | 1476 ft | 95 kts | 261° |
| 2026-05-04 19:49 | 60.18172 | 11.05340 | 1629 ft | 97 kts | 289° |
| 2026-05-04 19:50 | 60.18525 | 11.04156 | 1658 ft | 104 kts | 322° |
| 2026-05-04 19:50 | 60.19305 | 11.04297 | 1585 ft | 132 kts | 17° |
| 2026-05-04 19:50 | 60.20153 | 11.04809 | 1591 ft | 124 kts | 349° |
| 2026-05-04 19:50 | 60.20784 | 11.03866 | 1461 ft | 117 kts | 288° |
| 2026-05-04 19:51 | 60.20562 | 11.02541 | 1491 ft | 107 kts | 211° |
| 2026-05-04 19:51 | 60.19833 | 11.02873 | 1347 ft | 126 kts | 133° |
| 2026-05-04 19:51 | 60.19730 | 11.04602 | 1175 ft | 133 kts | 60° |
| 2026-05-04 19:51 | 60.20470 | 11.05388 | 1218 ft | 114 kts | 11° |
| 2026-05-04 19:52 | 60.21205 | 11.05822 | 1183 ft | 105 kts | 13° |
| 2026-05-04 19:52 | 60.21888 | 11.06308 | 1162 ft | 102 kts | 13° |
| 2026-05-04 19:52 | 60.22541 | 11.06724 | 1175 ft | 95 kts | 8° |
| 2026-05-04 19:52 | 60.23145 | 11.07073 | 1229 ft | 85 kts | 8° |
| 2026-05-04 19:53 | 60.23562 | 11.07754 | 1232 ft | 86 kts | 71° |
| 2026-05-04 19:53 | 60.23432 | 11.08990 | 1162 ft | 100 kts | 109° |
| 2026-05-04 19:53 | 60.23056 | 11.09851 | 1156 ft | 83 kts | 171° |
| 2026-05-04 19:53 | 60.22481 | 11.09673 | 911 ft | 86 kts | 202° |
| 2026-05-04 19:54 | 60.21935 | 11.09353 | 799 ft | 78 kts | 199° |
| 2026-05-04 19:54 | 60.21438 | 11.09076 | 699 ft | 69 kts | 200° |
| 2026-05-04 19:54 | 60.21021 | 11.08824 | 676 ft | 58 kts | 199° |
| 2026-05-04 19:54 | 60.20652 | 11.08614 | 673 ft | 59 kts | 194° |
| 2026-05-04 19:55 | 60.20163 | 11.08351 | 745 ft | 80 kts | 197° |
| 2026-05-04 19:55 | 60.19588 | 11.08040 | 911 ft | 88 kts | 198° |
| 2026-05-04 19:55 | 60.18957 | 11.07694 | 1031 ft | 105 kts | 197° |
| 2026-05-04 19:55 | 60.18284 | 11.07185 | 1344 ft | 101 kts | 233° |
| 2026-05-04 19:56 | 60.18211 | 11.05746 | 1441 ft | 117 kts | 282° |
| 2026-05-04 19:56 | 60.18498 | 11.04218 | 1614 ft | 121 kts | 311° |
| 2026-05-04 19:56 | 60.19290 | 11.04033 | 1642 ft | 134 kts | 17° |
| 2026-05-04 19:56 | 60.20182 | 11.04737 | 1688 ft | 134 kts | 15° |
| 2026-05-04 19:57 | 60.20982 | 11.05495 | 1742 ft | 127 kts | 16° |
| 2026-05-04 19:57 | 60.21774 | 11.06302 | 1692 ft | 127 kts | 18° |
| 2026-05-04 19:57 | 60.22583 | 11.06968 | 1741 ft | 121 kts | 350° |
| 2026-05-04 19:57 | 60.23188 | 11.06149 | 1698 ft | 105 kts | 283° |
| 2026-05-04 19:58 | 60.22942 | 11.04921 | 1468 ft | 115 kts | 209° |
| 2026-05-04 19:58 | 60.22251 | 11.05409 | 1407 ft | 122 kts | 129° |
| 2026-05-04 19:58 | 60.22355 | 11.07039 | 1160 ft | 123 kts | 43° |
| 2026-05-04 19:58 | 60.23062 | 11.07687 | 1169 ft | 104 kts | 16° |
| 2026-05-04 19:59 | 60.23740 | 11.08192 | 1230 ft | 106 kts | 14° |
| 2026-05-04 19:59 | 60.24259 | 11.09160 | 1228 ft | 113 kts | 74° |
| 2026-05-04 19:59 | 60.23971 | 11.10480 | 1186 ft | 101 kts | 169° |
| 2026-05-04 19:59 | 60.23309 | 11.10190 | 1037 ft | 95 kts | 201° |
| 2026-05-04 20:00 | 60.22681 | 11.09811 | 932 ft | 94 kts | 200° |
| 2026-05-04 20:00 | 60.22069 | 11.09450 | 821 ft | 85 kts | 199° |
| 2026-05-04 20:00 | 60.21569 | 11.09144 | 697 ft | 65 kts | 202° |
| 2026-05-04 20:00 | 60.21187 | 11.08924 | 676 ft | 53 kts | 198° |
| 2026-05-04 20:01 | 60.20811 | 11.08709 | 674 ft | 64 kts | 196° |
| 2026-05-04 20:01 | 60.20326 | 11.08443 | 713 ft | 79 kts | 197° |
| 2026-05-04 20:01 | 60.19732 | 11.08146 | 895 ft | 95 kts | 195° |
| 2026-05-04 20:01 | 60.19040 | 11.07704 | 1087 ft | 110 kts | 201° |
| 2026-05-04 20:02 | 60.18650 | 11.06624 | 1379 ft | 98 kts | 279° |
| 2026-05-04 20:02 | 60.19018 | 11.05570 | 1576 ft | 100 kts | 315° |
| 2026-05-04 20:02 | 60.19386 | 11.05033 | 1700 ft | 98 kts | 319° |
| 2026-05-04 20:02 | 60.19956 | 11.04275 | 1801 ft | 99 kts | 321° |
| 2026-05-04 20:03 | 60.20536 | 11.03529 | 1838 ft | 100 kts | 315° |
| 2026-05-04 20:03 | 60.21155 | 11.03039 | 1880 ft | 104 kts | 349° |
| 2026-05-04 20:03 | 60.22137 | 11.03664 | 1815 ft | 115 kts | 15° |
| 2026-05-04 20:03 | 60.22624 | 11.04242 | 1766 ft | 125 kts | 20° |
| 2026-05-04 20:04 | 60.23369 | 11.05161 | 1871 ft | 126 kts | 22° |
| 2026-05-04 20:04 | 60.24154 | 11.05992 | 1879 ft | 130 kts | 14° |
| 2026-05-04 20:04 | 60.25017 | 11.06718 | 1770 ft | 139 kts | 16° |
| 2026-05-04 20:04 | 60.25845 | 11.07663 | 1654 ft | 136 kts | 27° |
| 2026-05-04 20:05 | 60.26357 | 11.09069 | 1559 ft | 127 kts | 75° |
| 2026-05-04 20:05 | 60.26174 | 11.10789 | 1465 ft | 122 kts | 121° |
| 2026-05-04 20:05 | 60.25461 | 11.11455 | 1309 ft | 121 kts | 193° |
| 2026-05-04 20:05 | 60.24695 | 11.11057 | 1292 ft | 105 kts | 205° |
| 2026-05-04 20:06 | 60.24062 | 11.10639 | 1258 ft | 89 kts | 204° |
| 2026-05-04 20:06 | 60.23501 | 11.10332 | 1157 ft | 76 kts | 201° |
| 2026-05-04 20:06 | 60.23027 | 11.10032 | 992 ft | 69 kts | 207° |
| 2026-05-04 20:06 | 60.22544 | 11.09694 | 859 ft | 79 kts | 199° |
| 2026-05-04 20:07 | 60.21941 | 11.09400 | 958 ft | 94 kts | 198° |
| 2026-05-04 20:07 | 60.21287 | 11.09018 | 1095 ft | 108 kts | 199° |
| 2026-05-04 20:07 | 60.20819 | 11.07982 | 1375 ft | 97 kts | 259° |
| 2026-05-04 20:07 | 60.20886 | 11.06710 | 1593 ft | 91 kts | 284° |
| 2026-05-04 20:08 | 60.21113 | 11.05510 | 1626 ft | 89 kts | 308° |
| 2026-05-04 20:08 | 60.21716 | 11.05420 | 1460 ft | 108 kts | 15° |
| 2026-05-04 20:08 | 60.22401 | 11.06117 | 1362 ft | 112 kts | 18° |
| 2026-05-04 20:08 | 60.23117 | 11.06768 | 1236 ft | 111 kts | 18° |
| 2026-05-04 20:09 | 60.23787 | 11.07407 | 1229 ft | 103 kts | 22° |
| 2026-05-04 20:09 | 60.24114 | 11.08512 | 1124 ft | 105 kts | 101° |
| 2026-05-04 20:09 | 60.23856 | 11.09860 | 1176 ft | 93 kts | 128° |
| 2026-05-04 20:09 | 60.23315 | 11.10190 | 1065 ft | 83 kts | 194° |
| 2026-05-04 20:10 | 60.22787 | 11.09873 | 958 ft | 78 kts | 204° |
| 2026-05-04 20:10 | 60.22248 | 11.09557 | 837 ft | 82 kts | 199° |
| 2026-05-04 20:10 | 60.21709 | 11.09236 | 733 ft | 78 kts | 201° |
| 2026-05-04 20:10 | 60.21215 | 11.08944 | 683 ft | 70 kts | 199° |
| 2026-05-04 20:11 | 60.20852 | 11.08732 | 674 ft | 30 kts | 199° |
| 2026-05-04 20:11 | 60.20689 | 11.08557 | 673 ft | 26 kts | 240° |
| 2026-05-04 20:11 | 60.20630 | 11.08312 | 673 ft | 10 kts | 240° |
| 2026-05-04 20:11 | 60.20618 | 11.08179 | 671 ft | 20 kts | 328° |
| 2026-05-04 20:12 | 60.20630 | 11.08088 | 671 ft | 0 kts | 206° |